Terminal Aerodrome Forecast
Issued by NWS

Home | Current Version | Previous Version | Text Only | Print | Product List | Glossary On
Versions: 1 2 3 4 5 6 7 8 9 10 11 12 13 14 15 16 17
000
FTAK31 PAJN 051700
TAFAJN
TAF
PAJN 051737Z 0518/0618 24008KT P6SM SCT180
     FM052100 24011KT P6SM SCT180
     FM060200 29006KT P6SM SCT180
     FM060600 VRB02KT P6SM SCT200
     FM061600 26006KT P6SM FEW200=

USA.gov is the U.S. government's official web portal to all federal, state and local government web resources and services.